Airfield :
LOGIN :

Register | Disclaimer

   EN    FR    IT 

 










Legend :    VFR   Marginal VFR   IFR   Intensive IFR   Very Intensive IFR
Visi :
Ceiling :
>= 8 km
>= 3000ft
5 to 8 km
1000 to 3000 ft
1500m to 5 km
500 to 1000 ft
800 to 1500m
200 to 500 ft
< 800m
< 200 ft
Symbols :   Thunderstorms  Fog  Heavy snow  Heavy precipitations  Wind > 20 kt
SIGMETs :     Misc.  Thunderstorms  Icing  Turbulence  Mountain Waves  Volcanic Ashes







- Airport Elevation : 3 ft
- IATA code : DHR


EHKD - Den Helder De Kooy

CURRENT METAR :
  • 241330Z AUTO 06006KT 030V090 5000 BR NCD 16/14 Q1023 WHT 08005KT 3500 BR FEW020 BECMG 8000

EXPIRED METARs :
  • 241325Z AUTO 06007KT 030V090 4400 BR NCD 16/15 Q1023 GRN 08005KT 3500 BR FEW020 BECMG 8000
  • 241317Z AUTO 06008KT 4100 BR NCD 16/14 Q1023 GRN 08005KT 3500 BR FEW020 BECMG 8000
  • 241256Z AUTO 06007KT 030V090 2100 R21/1600U BR FEW001 15/14 Q1023 YLO 08005KT 3500 BR FEW020 BECMG 8000
  • 241304Z AUTO 06006KT 030V090 4000 BR NCD 16/15 Q1023 GRN 08005KT 3500 BR FEW020 BECMG 8000
  • 241255Z AUTO 06007KT 040V100 1300 R21/1300N BR FEW001 SCT002 15/14 Q1023 AMB 08005 2000 BR SCT002
  • 241246Z AUTO 06007KT 040V100 1100 R21/1100N BR FEW000 SCT001 15/14 Q1023 RED 08005 1500 BR SCT002
  • 241234Z AUTO 06006KT 1100 R21/1100U BR FEW000 SCT002 15/14 Q1023 AMB 08005 1500 BR SCT002
  • 241225Z AUTO 06006KT 0400 R21/0550D FG BKN000 14/14 Q1023 RED 08005 1500 BR SCT002 TEMPO 0800 BCFG BKN001
  • 241204Z AUTO 06006KT 030V100 1100 R21/1100D BR FEW000 BKN001 14/14 Q1023 RED 08005 1500 BR SCT002 TEMPO 0800 BCFG BKN001
  • 241201Z AUTO 06006KT 040V100 1400 R21/1400D BR SCT001 SCT003 15/14 Q1023 RED 08005 1500 BR FEW004 TEMPO 0800 BCFG SCT003
  • 241155Z AUTO 07006KT 1200 R21/2600N BR FEW001 15/14 Q1023 AMB 08005 3000 BR FEW004 TEMPO 0800 FG SCT003
  • 241125Z AUTO 09005KT 050V130 3100 R21/P3000U BR FEW004 15/14 Q1023 YLO
  • 241055Z AUTO 09005KT 050V140 2500 R21/2500U BR SCT003 BKN004 14/14 Q1023 YLO
  • 241047Z AUTO 08006KT 050V120 2100 R21/2000U BR BKN002 OVC004 14/14 Q1023 AMB

TAF TAF EHKD
Valid from the 24 at 13:00 until the 25 at 01:00 UTC


241211Z 2413/2501 09005KT 2000 BR FEW003
BECMG 2413/2415 9999 NSW FEW020
BECMG 2422/2424 3000 BR
No reported NOTAMs for that airfield.



MET'MAP, your aeronautical weather chart ! - Copyright ORBIFLY December 2007 - Disclaimer

ORBIFLY MET'MAP TEAM :

Programming & Development : Alexandra Zaïnal
Concept & Development : Baudouin d'Aumeries
Co-Development & Prog : Marc-Olivier Méhu
Technical & hardware support : Manuel Goepfert

Contact : metmap@orbifly.com




SOURCES & CREDITS :

   NOAA